< < Back
Terminal Aerodrome Forecast


Current Version              Previous Versions:   1  2  3  4  5  6  7  8  9  

Terminal Aerodrome Forecast

750
FTUS42 KTAE 251734
TAFABY
TAF
KABY 251734Z 2518/2618 13005KT P6SM SCT040
     FM260200 16003KT P6SM SCT250
     FM261500 15005KT P6SM SCT040=

Latest METAR

739
SAUS70 KWBC 252200 RRL
MTRABY
METAR KABY 252153Z 15012KT 10SM SCT055 34/21 A2999 RMK AO2 SLP153
T03440206


USA.gov is the U.S. government's official web portal to all federal, state and local government web resources and services.